sensor_id;sensor_type;location;lat;lon;timestamp;temperature;humidity
11922;DHT22;6021;51.182;3.160;2023-08-12T00:02:17;19.70;99.90
11922;DHT22;6021;51.182;3.160;2023-08-12T00:04:46;19.60;99.90
11922;DHT22;6021;51.182;3.160;2023-08-12T00:07:15;19.70;99.90
11922;DHT22;6021;51.182;3.160;2023-08-12T00:09:43;19.60;99.90
11922;DHT22;6021;51.182;3.160;2023-08-12T00:12:11;19.60;99.90
11922;DHT22;6021;51.182;3.160;2023-08-12T00:14:39;19.60;99.90
11922;DHT22;6021;51.182;3.160;2023-08-12T00:17:08;19.60;99.90
11922;DHT22;6021;51.182;3.160;2023-08-12T00:19:36;19.50;99.90
11922;DHT22;6021;51.182;3.160;2023-08-12T00:22:04;19.50;99.90
11922;DHT22;6021;51.182;3.160;2023-08-12T00:24:33;19.50;99.90
11922;DHT22;6021;51.182;3.160;2023-08-12T00:27:01;19.50;99.90
11922;DHT22;6021;51.182;3.160;2023-08-12T00:29:29;19.50;99.90
11922;DHT22;6021;51.182;3.160;2023-08-12T00:31:58;19.40;99.90
11922;DHT22;6021;51.182;3.160;2023-08-12T00:34:26;19.40;99.90
11922;DHT22;6021;51.182;3.160;2023-08-12T00:36:55;19.40;99.90
11922;DHT22;6021;51.182;3.160;2023-08-12T00:39:23;19.40;99.90
11922;DHT22;6021;51.182;3.160;2023-08-12T00:41:51;19.30;99.90
11922;DHT22;6021;51.182;3.160;2023-08-12T00:44:20;19.30;99.90
11922;DHT22;6021;51.182;3.160;2023-08-12T00:46:49;19.30;99.90
11922;DHT22;6021;51.182;3.160;2023-08-12T00:49:18;19.30;99.90
11922;DHT22;6021;51.182;3.160;2023-08-12T00:51:49;19.30;99.90
11922;DHT22;6021;51.182;3.160;2023-08-12T00:54:18;19.30;99.90
11922;DHT22;6021;51.182;3.160;2023-08-12T00:56:49;19.30;99.90
11922;DHT22;6021;51.182;3.160;2023-08-12T00:59:18;19.30;99.90
11922;DHT22;6021;51.182;3.160;2023-08-12T01:01:47;19.30;99.90
11922;DHT22;6021;51.182;3.160;2023-08-12T01:04:16;19.30;99.90
11922;DHT22;6021;51.182;3.160;2023-08-12T01:06:45;19.40;99.90
11922;DHT22;6021;51.182;3.160;2023-08-12T01:09:13;19.40;99.90
11922;DHT22;6021;51.182;3.160;2023-08-12T01:11:57;19.40;99.90
11922;DHT22;6021;51.182;3.160;2023-08-12T01:17:14;19.50;99.90
11922;DHT22;6021;51.182;3.160;2023-08-12T01:19:43;19.50;99.90
11922;DHT22;6021;51.182;3.160;2023-08-12T01:22:13;19.50;99.90
11922;DHT22;6021;51.182;3.160;2023-08-12T01:24:42;19.50;99.90
11922;DHT22;6021;51.182;3.160;2023-08-12T01:27:12;19.50;99.90
11922;DHT22;6021;51.182;3.160;2023-08-12T01:29:46;19.40;99.90
11922;DHT22;6021;51.182;3.160;2023-08-12T01:35:17;19.40;99.90
11922;DHT22;6021;51.182;3.160;2023-08-12T01:37:49;19.40;99.90
11922;DHT22;6021;51.182;3.160;2023-08-12T01:40:19;19.40;99.90
11922;DHT22;6021;51.182;3.160;2023-08-12T01:42:48;19.40;99.90
11922;DHT22;6021;51.182;3.160;2023-08-12T01:45:18;19.40;99.90
11922;DHT22;6021;51.182;3.160;2023-08-12T01:47:46;19.40;99.90
11922;DHT22;6021;51.182;3.160;2023-08-12T01:50:16;19.40;99.90
11922;DHT22;6021;51.182;3.160;2023-08-12T01:52:46;19.40;99.90
11922;DHT22;6021;51.182;3.160;2023-08-12T01:55:14;19.40;99.90
11922;DHT22;6021;51.182;3.160;2023-08-12T01:57:43;19.40;99.90
11922;DHT22;6021;51.182;3.160;2023-08-12T02:00:11;19.30;99.90
11922;DHT22;6021;51.182;3.160;2023-08-12T02:02:40;19.30;99.90
11922;DHT22;6021;51.182;3.160;2023-08-12T02:05:08;19.30;99.90
11922;DHT22;6021;51.182;3.160;2023-08-12T02:07:36;19.20;99.90
11922;DHT22;6021;51.182;3.160;2023-08-12T02:10:05;19.20;99.90
11922;DHT22;6021;51.182;3.160;2023-08-12T02:12:33;19.20;99.90
11922;DHT22;6021;51.182;3.160;2023-08-12T02:15:02;19.30;99.90
11922;DHT22;6021;51.182;3.160;2023-08-12T02:17:30;19.30;99.90
11922;DHT22;6021;51.182;3.160;2023-08-12T02:19:58;19.40;99.90
11922;DHT22;6021;51.182;3.160;2023-08-12T02:22:27;19.40;99.90
11922;DHT22;6021;51.182;3.160;2023-08-12T02:24:56;19.30;99.90
11922;DHT22;6021;51.182;3.160;2023-08-12T02:27:25;19.30;99.90
11922;DHT22;6021;51.182;3.160;2023-08-12T02:29:53;19.30;99.90
11922;DHT22;6021;51.182;3.160;2023-08-12T02:32:21;19.20;99.90
11922;DHT22;6021;51.182;3.160;2023-08-12T02:34:50;19.20;99.90
11922;DHT22;6021;51.182;3.160;2023-08-12T02:37:18;19.20;99.90
11922;DHT22;6021;51.182;3.160;2023-08-12T02:39:46;19.20;99.90
11922;DHT22;6021;51.182;3.160;2023-08-12T02:42:15;19.20;99.90
11922;DHT22;6021;51.182;3.160;2023-08-12T02:44:43;19.20;99.90
11922;DHT22;6021;51.182;3.160;2023-08-12T02:47:11;19.30;99.90
11922;DHT22;6021;51.182;3.160;2023-08-12T02:49:40;19.20;99.90
11922;DHT22;6021;51.182;3.160;2023-08-12T02:52:08;19.20;99.90
11922;DHT22;6021;51.182;3.160;2023-08-12T02:54:37;19.20;99.90
11922;DHT22;6021;51.182;3.160;2023-08-12T02:57:05;19.20;99.90
11922;DHT22;6021;51.182;3.160;2023-08-12T02:59:34;19.20;99.90
11922;DHT22;6021;51.182;3.160;2023-08-12T03:02:02;19.20;99.90
11922;DHT22;6021;51.182;3.160;2023-08-12T03:04:31;19.20;99.90
11922;DHT22;6021;51.182;3.160;2023-08-12T03:06:59;19.20;99.90
11922;DHT22;6021;51.182;3.160;2023-08-12T03:09:27;19.20;99.90
11922;DHT22;6021;51.182;3.160;2023-08-12T03:11:55;19.20;99.90
11922;DHT22;6021;51.182;3.160;2023-08-12T03:14:24;19.10;99.90
11922;DHT22;6021;51.182;3.160;2023-08-12T03:16:52;19.20;99.90
11922;DHT22;6021;51.182;3.160;2023-08-12T03:19:20;19.30;99.90
11922;DHT22;6021;51.182;3.160;2023-08-12T03:21:49;19.30;99.90
11922;DHT22;6021;51.182;3.160;2023-08-12T03:24:17;19.30;99.90
11922;DHT22;6021;51.182;3.160;2023-08-12T03:26:45;19.30;99.90
11922;DHT22;6021;51.182;3.160;2023-08-12T03:29:13;19.30;99.90
11922;DHT22;6021;51.182;3.160;2023-08-12T03:31:42;19.30;99.90
11922;DHT22;6021;51.182;3.160;2023-08-12T03:34:10;19.10;99.90
11922;DHT22;6021;51.182;3.160;2023-08-12T03:36:38;19.30;99.90
11922;DHT22;6021;51.182;3.160;2023-08-12T03:39:07;19.30;99.90
11922;DHT22;6021;51.182;3.160;2023-08-12T03:41:36;19.20;99.90
11922;DHT22;6021;51.182;3.160;2023-08-12T03:44:04;19.10;99.90
11922;DHT22;6021;51.182;3.160;2023-08-12T03:46:33;19.10;99.90
11922;DHT22;6021;51.182;3.160;2023-08-12T03:49:01;19.10;99.90
11922;DHT22;6021;51.182;3.160;2023-08-12T03:51:30;19.10;99.90
11922;DHT22;6021;51.182;3.160;2023-08-12T03:53:58;19.10;99.90
11922;DHT22;6021;51.182;3.160;2023-08-12T03:56:27;19.10;99.90
11922;DHT22;6021;51.182;3.160;2023-08-12T03:58:55;19.10;99.90
11922;DHT22;6021;51.182;3.160;2023-08-12T04:01:23;19.10;99.90
11922;DHT22;6021;51.182;3.160;2023-08-12T04:03:53;19.10;99.90
11922;DHT22;6021;51.182;3.160;2023-08-12T04:06:21;19.20;99.90
11922;DHT22;6021;51.182;3.160;2023-08-12T04:08:50;19.20;99.90
11922;DHT22;6021;51.182;3.160;2023-08-12T04:11:18;19.20;99.90
11922;DHT22;6021;51.182;3.160;2023-08-12T04:13:46;19.20;99.90
11922;DHT22;6021;51.182;3.160;2023-08-12T04:16:15;19.10;99.90
11922;DHT22;6021;51.182;3.160;2023-08-12T04:18:43;19.10;99.90
11922;DHT22;6021;51.182;3.160;2023-08-12T04:21:14;19.10;99.90
11922;DHT22;6021;51.182;3.160;2023-08-12T04:23:42;19.10;99.90
11922;DHT22;6021;51.182;3.160;2023-08-12T04:26:11;19.10;99.90
11922;DHT22;6021;51.182;3.160;2023-08-12T04:28:39;19.10;99.90
11922;DHT22;6021;51.182;3.160;2023-08-12T04:31:08;19.00;99.90
11922;DHT22;6021;51.182;3.160;2023-08-12T04:33:36;18.90;99.90
11922;DHT22;6021;51.182;3.160;2023-08-12T04:36:05;18.80;99.90
11922;DHT22;6021;51.182;3.160;2023-08-12T04:38:33;18.70;99.90
11922;DHT22;6021;51.182;3.160;2023-08-12T04:41:02;18.60;99.90
11922;DHT22;6021;51.182;3.160;2023-08-12T04:43:31;18.40;99.90
11922;DHT22;6021;51.182;3.160;2023-08-12T04:45:59;18.30;99.90
11922;DHT22;6021;51.182;3.160;2023-08-12T04:48:27;18.20;99.90
11922;DHT22;6021;51.182;3.160;2023-08-12T04:50:55;18.10;99.90
11922;DHT22;6021;51.182;3.160;2023-08-12T04:53:25;18.00;99.90
11922;DHT22;6021;51.182;3.160;2023-08-12T04:55:55;17.90;99.90
11922;DHT22;6021;51.182;3.160;2023-08-12T04:58:24;17.80;99.90
11922;DHT22;6021;51.182;3.160;2023-08-12T05:00:53;17.60;99.90
11922;DHT22;6021;51.182;3.160;2023-08-12T05:03:21;17.50;99.90
11922;DHT22;6021;51.182;3.160;2023-08-12T05:05:51;17.40;99.90
11922;DHT22;6021;51.182;3.160;2023-08-12T05:08:19;17.40;99.90
11922;DHT22;6021;51.182;3.160;2023-08-12T05:10:48;17.30;99.90
11922;DHT22;6021;51.182;3.160;2023-08-12T05:13:17;17.20;99.90
11922;DHT22;6021;51.182;3.160;2023-08-12T05:15:46;17.20;99.90
11922;DHT22;6021;51.182;3.160;2023-08-12T05:18:15;17.10;99.90
11922;DHT22;6021;51.182;3.160;2023-08-12T05:20:43;17.10;99.90
11922;DHT22;6021;51.182;3.160;2023-08-12T05:23:12;17.10;99.90
11922;DHT22;6021;51.182;3.160;2023-08-12T05:25:40;17.10;99.90
11922;DHT22;6021;51.182;3.160;2023-08-12T05:28:08;17.10;99.90
11922;DHT22;6021;51.182;3.160;2023-08-12T05:30:37;17.10;99.90
11922;DHT22;6021;51.182;3.160;2023-08-12T05:33:05;17.10;99.90
11922;DHT22;6021;51.182;3.160;2023-08-12T05:35:34;17.00;99.90
11922;DHT22;6021;51.182;3.160;2023-08-12T05:38:03;17.10;99.90
11922;DHT22;6021;51.182;3.160;2023-08-12T05:40:31;17.10;99.90
11922;DHT22;6021;51.182;3.160;2023-08-12T05:43:00;17.00;99.90
11922;DHT22;6021;51.182;3.160;2023-08-12T05:45:28;17.10;99.90
11922;DHT22;6021;51.182;3.160;2023-08-12T05:47:57;17.00;99.90
11922;DHT22;6021;51.182;3.160;2023-08-12T05:50:26;17.00;99.90
11922;DHT22;6021;51.182;3.160;2023-08-12T05:52:54;17.10;99.90
11922;DHT22;6021;51.182;3.160;2023-08-12T05:55:22;17.20;99.90
11922;DHT22;6021;51.182;3.160;2023-08-12T05:57:51;17.30;99.90
11922;DHT22;6021;51.182;3.160;2023-08-12T06:00:19;17.30;99.90
11922;DHT22;6021;51.182;3.160;2023-08-12T06:02:47;17.20;99.90
11922;DHT22;6021;51.182;3.160;2023-08-12T06:05:16;17.20;99.90
11922;DHT22;6021;51.182;3.160;2023-08-12T06:07:44;17.20;99.90
11922;DHT22;6021;51.182;3.160;2023-08-12T06:10:12;17.30;99.90
11922;DHT22;6021;51.182;3.160;2023-08-12T06:12:40;17.20;99.90
11922;DHT22;6021;51.182;3.160;2023-08-12T06:15:09;17.20;99.90
11922;DHT22;6021;51.182;3.160;2023-08-12T06:17:38;17.20;99.90
11922;DHT22;6021;51.182;3.160;2023-08-12T06:20:08;17.20;99.90
11922;DHT22;6021;51.182;3.160;2023-08-12T06:22:36;17.20;99.90
11922;DHT22;6021;51.182;3.160;2023-08-12T06:25:05;17.30;99.90
11922;DHT22;6021;51.182;3.160;2023-08-12T06:27:33;17.30;99.90
11922;DHT22;6021;51.182;3.160;2023-08-12T06:30:01;17.30;99.90
11922;DHT22;6021;51.182;3.160;2023-08-12T06:32:30;17.30;99.90
11922;DHT22;6021;51.182;3.160;2023-08-12T06:34:58;17.30;99.90
11922;DHT22;6021;51.182;3.160;2023-08-12T06:37:27;17.30;99.90
11922;DHT22;6021;51.182;3.160;2023-08-12T06:39:55;17.30;99.90
11922;DHT22;6021;51.182;3.160;2023-08-12T06:42:25;17.30;99.90
11922;DHT22;6021;51.182;3.160;2023-08-12T06:44:57;17.20;99.90
11922;DHT22;6021;51.182;3.160;2023-08-12T06:47:26;17.20;99.90
11922;DHT22;6021;51.182;3.160;2023-08-12T06:49:56;17.20;99.90
11922;DHT22;6021;51.182;3.160;2023-08-12T06:52:24;17.30;99.90
11922;DHT22;6021;51.182;3.160;2023-08-12T06:54:53;17.30;99.90
11922;DHT22;6021;51.182;3.160;2023-08-12T06:57:21;17.30;99.90
11922;DHT22;6021;51.182;3.160;2023-08-12T06:59:49;17.30;99.90
11922;DHT22;6021;51.182;3.160;2023-08-12T07:02:19;17.30;99.90
11922;DHT22;6021;51.182;3.160;2023-08-12T07:04:47;17.20;99.90
11922;DHT22;6021;51.182;3.160;2023-08-12T07:07:16;17.10;99.90
11922;DHT22;6021;51.182;3.160;2023-08-12T07:09:44;17.20;99.90
11922;DHT22;6021;51.182;3.160;2023-08-12T07:12:12;17.10;99.90
11922;DHT22;6021;51.182;3.160;2023-08-12T07:14:41;17.20;99.90
11922;DHT22;6021;51.182;3.160;2023-08-12T07:17:09;17.10;99.90
11922;DHT22;6021;51.182;3.160;2023-08-12T07:19:38;17.10;99.90
11922;DHT22;6021;51.182;3.160;2023-08-12T07:22:06;17.10;99.90
11922;DHT22;6021;51.182;3.160;2023-08-12T07:24:35;17.00;99.90
11922;DHT22;6021;51.182;3.160;2023-08-12T07:27:03;17.00;99.90
11922;DHT22;6021;51.182;3.160;2023-08-12T07:29:31;17.10;99.90
11922;DHT22;6021;51.182;3.160;2023-08-12T07:31:59;17.20;99.90
11922;DHT22;6021;51.182;3.160;2023-08-12T07:34:28;17.20;99.90
11922;DHT22;6021;51.182;3.160;2023-08-12T07:36:56;17.30;99.90
11922;DHT22;6021;51.182;3.160;2023-08-12T07:39:24;17.30;99.90
11922;DHT22;6021;51.182;3.160;2023-08-12T07:41:53;17.30;99.90
11922;DHT22;6021;51.182;3.160;2023-08-12T07:44:21;17.30;99.90
11922;DHT22;6021;51.182;3.160;2023-08-12T07:46:50;17.30;99.90
11922;DHT22;6021;51.182;3.160;2023-08-12T07:49:20;17.30;99.90
11922;DHT22;6021;51.182;3.160;2023-08-12T07:51:49;17.40;99.90
11922;DHT22;6021;51.182;3.160;2023-08-12T07:54:18;17.40;99.90
11922;DHT22;6021;51.182;3.160;2023-08-12T07:56:46;17.50;99.90
11922;DHT22;6021;51.182;3.160;2023-08-12T07:59:15;17.60;99.90
11922;DHT22;6021;51.182;3.160;2023-08-12T08:01:43;17.70;99.90
11922;DHT22;6021;51.182;3.160;2023-08-12T08:04:14;17.70;99.90
11922;DHT22;6021;51.182;3.160;2023-08-12T08:06:43;17.70;99.90
11922;DHT22;6021;51.182;3.160;2023-08-12T08:09:11;17.70;99.90
11922;DHT22;6021;51.182;3.160;2023-08-12T08:11:39;17.80;99.90
11922;DHT22;6021;51.182;3.160;2023-08-12T08:14:08;17.80;99.90
11922;DHT22;6021;51.182;3.160;2023-08-12T08:16:36;17.70;99.90
11922;DHT22;6021;51.182;3.160;2023-08-12T08:19:06;17.80;99.90
11922;DHT22;6021;51.182;3.160;2023-08-12T08:21:36;17.80;99.90
11922;DHT22;6021;51.182;3.160;2023-08-12T08:24:05;17.70;99.90
11922;DHT22;6021;51.182;3.160;2023-08-12T08:26:33;17.80;99.90
11922;DHT22;6021;51.182;3.160;2023-08-12T08:29:02;17.80;99.90
11922;DHT22;6021;51.182;3.160;2023-08-12T08:31:30;17.80;99.90
11922;DHT22;6021;51.182;3.160;2023-08-12T08:33:59;17.70;99.90
11922;DHT22;6021;51.182;3.160;2023-08-12T08:36:27;17.70;99.90
11922;DHT22;6021;51.182;3.160;2023-08-12T08:38:55;17.70;99.90
11922;DHT22;6021;51.182;3.160;2023-08-12T08:41:24;17.70;99.90
11922;DHT22;6021;51.182;3.160;2023-08-12T08:43:53;17.70;99.90
11922;DHT22;6021;51.182;3.160;2023-08-12T08:46:23;17.70;99.90
11922;DHT22;6021;51.182;3.160;2023-08-12T08:48:51;17.60;99.90
11922;DHT22;6021;51.182;3.160;2023-08-12T08:51:20;17.60;99.90
11922;DHT22;6021;51.182;3.160;2023-08-12T08:53:49;17.60;99.90
11922;DHT22;6021;51.182;3.160;2023-08-12T08:56:18;17.60;99.90
11922;DHT22;6021;51.182;3.160;2023-08-12T08:58:46;17.70;99.90
11922;DHT22;6021;51.182;3.160;2023-08-12T09:01:18;17.70;99.90
11922;DHT22;6021;51.182;3.160;2023-08-12T09:03:45;17.70;99.90
11922;DHT22;6021;51.182;3.160;2023-08-12T09:06:14;17.70;99.90
11922;DHT22;6021;51.182;3.160;2023-08-12T09:08:45;17.70;99.90
11922;DHT22;6021;51.182;3.160;2023-08-12T09:11:14;17.70;99.90
11922;DHT22;6021;51.182;3.160;2023-08-12T09:13:43;17.80;99.90
11922;DHT22;6021;51.182;3.160;2023-08-12T09:16:12;17.80;99.90
11922;DHT22;6021;51.182;3.160;2023-08-12T09:18:44;17.80;99.90
11922;DHT22;6021;51.182;3.160;2023-08-12T09:21:12;17.80;99.90
11922;DHT22;6021;51.182;3.160;2023-08-12T09:23:41;17.90;99.90
11922;DHT22;6021;51.182;3.160;2023-08-12T09:26:13;17.90;99.90
11922;DHT22;6021;51.182;3.160;2023-08-12T09:28:42;18.00;99.90
11922;DHT22;6021;51.182;3.160;2023-08-12T09:31:28;18.00;99.90
11922;DHT22;6021;51.182;3.160;2023-08-12T09:34:05;18.10;99.90
11922;DHT22;6021;51.182;3.160;2023-08-12T09:36:36;18.00;99.90
11922;DHT22;6021;51.182;3.160;2023-08-12T09:39:08;18.00;99.90
11922;DHT22;6021;51.182;3.160;2023-08-12T09:41:38;18.00;99.90
11922;DHT22;6021;51.182;3.160;2023-08-12T09:44:09;18.00;99.90
11922;DHT22;6021;51.182;3.160;2023-08-12T09:46:38;18.00;99.90
11922;DHT22;6021;51.182;3.160;2023-08-12T09:49:07;18.00;99.90
11922;DHT22;6021;51.182;3.160;2023-08-12T09:51:36;18.10;99.90
11922;DHT22;6021;51.182;3.160;2023-08-12T09:54:06;18.10;99.90
11922;DHT22;6021;51.182;3.160;2023-08-12T09:56:37;18.10;99.90
11922;DHT22;6021;51.182;3.160;2023-08-12T09:59:08;18.10;99.90
11922;DHT22;6021;51.182;3.160;2023-08-12T10:01:37;18.00;99.90
11922;DHT22;6021;51.182;3.160;2023-08-12T10:04:10;17.90;99.90
11922;DHT22;6021;51.182;3.160;2023-08-12T10:06:41;18.10;99.90
11922;DHT22;6021;51.182;3.160;2023-08-12T10:09:10;18.10;99.90
11922;DHT22;6021;51.182;3.160;2023-08-12T10:11:39;18.20;99.90
11922;DHT22;6021;51.182;3.160;2023-08-12T10:14:10;18.20;99.90
11922;DHT22;6021;51.182;3.160;2023-08-12T10:16:38;18.20;99.90
11922;DHT22;6021;51.182;3.160;2023-08-12T10:19:10;18.30;99.90
11922;DHT22;6021;51.182;3.160;2023-08-12T10:21:40;18.30;99.90
11922;DHT22;6021;51.182;3.160;2023-08-12T10:24:09;18.30;99.90
11922;DHT22;6021;51.182;3.160;2023-08-12T10:26:40;18.30;99.90
11922;DHT22;6021;51.182;3.160;2023-08-12T10:29:09;18.20;99.90
11922;DHT22;6021;51.182;3.160;2023-08-12T10:31:39;18.30;99.90
11922;DHT22;6021;51.182;3.160;2023-08-12T10:36:55;18.60;99.90
11922;DHT22;6021;51.182;3.160;2023-08-12T10:39:25;18.60;99.90
11922;DHT22;6021;51.182;3.160;2023-08-12T10:41:57;18.60;99.90
11922;DHT22;6021;51.182;3.160;2023-08-12T10:44:51;18.70;99.90
11922;DHT22;6021;51.182;3.160;2023-08-12T10:47:20;18.90;99.90
11922;DHT22;6021;51.182;3.160;2023-08-12T10:49:50;18.90;99.90
11922;DHT22;6021;51.182;3.160;2023-08-12T10:52:26;18.90;99.90
11922;DHT22;6021;51.182;3.160;2023-08-12T10:54:53;19.10;99.90
11922;DHT22;6021;51.182;3.160;2023-08-12T10:57:35;19.10;99.90
11922;DHT22;6021;51.182;3.160;2023-08-12T11:00:09;19.10;99.90
11922;DHT22;6021;51.182;3.160;2023-08-12T11:02:37;19.10;99.90
11922;DHT22;6021;51.182;3.160;2023-08-12T11:05:11;19.00;99.90
11922;DHT22;6021;51.182;3.160;2023-08-12T11:07:47;18.90;99.90
11922;DHT22;6021;51.182;3.160;2023-08-12T11:10:24;18.90;99.90
11922;DHT22;6021;51.182;3.160;2023-08-12T11:12:55;18.90;99.90
11922;DHT22;6021;51.182;3.160;2023-08-12T11:15:41;18.70;99.90
11922;DHT22;6021;51.182;3.160;2023-08-12T11:18:14;18.80;99.90
11922;DHT22;6021;51.182;3.160;2023-08-12T11:20:44;18.80;99.90
11922;DHT22;6021;51.182;3.160;2023-08-12T11:23:13;18.90;99.90
11922;DHT22;6021;51.182;3.160;2023-08-12T11:25:43;18.80;99.90
11922;DHT22;6021;51.182;3.160;2023-08-12T11:28:13;19.00;99.90
11922;DHT22;6021;51.182;3.160;2023-08-12T11:30:42;19.00;99.90
11922;DHT22;6021;51.182;3.160;2023-08-12T11:33:10;19.10;99.90
11922;DHT22;6021;51.182;3.160;2023-08-12T11:35:40;19.10;99.90
11922;DHT22;6021;51.182;3.160;2023-08-12T11:38:09;19.20;99.90
11922;DHT22;6021;51.182;3.160;2023-08-12T11:40:37;19.10;99.90
11922;DHT22;6021;51.182;3.160;2023-08-12T11:43:06;19.10;99.90
11922;DHT22;6021;51.182;3.160;2023-08-12T11:45:35;19.10;99.90
11922;DHT22;6021;51.182;3.160;2023-08-12T11:48:05;19.10;99.90
11922;DHT22;6021;51.182;3.160;2023-08-12T11:50:33;19.30;99.90
11922;DHT22;6021;51.182;3.160;2023-08-12T11:53:02;19.30;99.90
11922;DHT22;6021;51.182;3.160;2023-08-12T11:55:30;19.30;99.90
11922;DHT22;6021;51.182;3.160;2023-08-12T11:57:59;19.20;99.90
11922;DHT22;6021;51.182;3.160;2023-08-12T12:00:27;19.20;99.90
11922;DHT22;6021;51.182;3.160;2023-08-12T12:02:56;19.20;99.90
11922;DHT22;6021;51.182;3.160;2023-08-12T12:05:27;19.10;99.90
11922;DHT22;6021;51.182;3.160;2023-08-12T12:07:58;19.10;99.90
11922;DHT22;6021;51.182;3.160;2023-08-12T12:10:32;19.10;99.90
11922;DHT22;6021;51.182;3.160;2023-08-12T12:13:01;19.10;99.90
11922;DHT22;6021;51.182;3.160;2023-08-12T12:15:37;19.10;99.90
11922;DHT22;6021;51.182;3.160;2023-08-12T12:18:02;19.10;99.90
11922;DHT22;6021;51.182;3.160;2023-08-12T12:20:35;19.10;99.90
11922;DHT22;6021;51.182;3.160;2023-08-12T12:23:08;19.20;99.90
11922;DHT22;6021;51.182;3.160;2023-08-12T12:25:37;19.30;99.90
11922;DHT22;6021;51.182;3.160;2023-08-12T12:28:06;19.20;99.90
11922;DHT22;6021;51.182;3.160;2023-08-12T12:30:34;19.30;99.90
11922;DHT22;6021;51.182;3.160;2023-08-12T12:33:02;19.30;99.90
11922;DHT22;6021;51.182;3.160;2023-08-12T12:35:31;19.30;99.90
11922;DHT22;6021;51.182;3.160;2023-08-12T12:37:59;19.10;99.90
11922;DHT22;6021;51.182;3.160;2023-08-12T12:40:28;19.10;99.90
11922;DHT22;6021;51.182;3.160;2023-08-12T12:42:56;19.00;99.90
11922;DHT22;6021;51.182;3.160;2023-08-12T12:45:26;18.90;99.90
11922;DHT22;6021;51.182;3.160;2023-08-12T12:47:54;18.90;99.90
11922;DHT22;6021;51.182;3.160;2023-08-12T12:50:22;19.00;99.90
11922;DHT22;6021;51.182;3.160;2023-08-12T12:52:51;19.10;99.90
11922;DHT22;6021;51.182;3.160;2023-08-12T12:55:19;19.00;99.90
11922;DHT22;6021;51.182;3.160;2023-08-12T12:57:47;19.10;73.00
11922;DHT22;6021;51.182;3.160;2023-08-12T13:00:16;19.20;91.10
11922;DHT22;6021;51.182;3.160;2023-08-12T13:02:44;19.10;99.90
11922;DHT22;6021;51.182;3.160;2023-08-12T13:05:13;19.10;99.90
11922;DHT22;6021;51.182;3.160;2023-08-12T13:07:42;19.20;38.00
11922;DHT22;6021;51.182;3.160;2023-08-12T13:10:11;19.30;9.10
11922;DHT22;6021;51.182;3.160;2023-08-12T13:12:39;19.20;14.00
11922;DHT22;6021;51.182;3.160;2023-08-12T13:15:08;19.30;5.60
11922;DHT22;6021;51.182;3.160;2023-08-12T13:17:36;19.40;6.60
11922;DHT22;6021;51.182;3.160;2023-08-12T13:20:05;19.60;16.30
11922;DHT22;6021;51.182;3.160;2023-08-12T13:22:34;19.60;60.90
11922;DHT22;6021;51.182;3.160;2023-08-12T13:25:02;19.70;40.40
11922;DHT22;6021;51.182;3.160;2023-08-12T13:27:30;19.70;25.90
11922;DHT22;6021;51.182;3.160;2023-08-12T13:29:58;19.80;31.10
11922;DHT22;6021;51.182;3.160;2023-08-12T13:32:27;19.70;7.00
11922;DHT22;6021;51.182;3.160;2023-08-12T13:34:55;19.70;1.00
11922;DHT22;6021;51.182;3.160;2023-08-12T13:37:24;19.80;20.90
11922;DHT22;6021;51.182;3.160;2023-08-12T13:39:52;19.80;1.00
11922;DHT22;6021;51.182;3.160;2023-08-12T13:42:20;20.00;1.00
11922;DHT22;6021;51.182;3.160;2023-08-12T13:44:49;20.20;1.00
11922;DHT22;6021;51.182;3.160;2023-08-12T13:47:17;20.30;1.00
11922;DHT22;6021;51.182;3.160;2023-08-12T13:49:45;20.30;1.00
11922;DHT22;6021;51.182;3.160;2023-08-12T13:52:13;20.30;1.00
11922;DHT22;6021;51.182;3.160;2023-08-12T13:54:42;20.20;1.00
11922;DHT22;6021;51.182;3.160;2023-08-12T13:57:10;20.20;1.00
11922;DHT22;6021;51.182;3.160;2023-08-12T13:59:39;20.20;1.00
11922;DHT22;6021;51.182;3.160;2023-08-12T14:02:09;20.30;1.00
11922;DHT22;6021;51.182;3.160;2023-08-12T14:04:37;20.40;1.00
11922;DHT22;6021;51.182;3.160;2023-08-12T14:07:06;20.40;1.00
11922;DHT22;6021;51.182;3.160;2023-08-12T14:09:35;20.20;1.00
11922;DHT22;6021;51.182;3.160;2023-08-12T14:12:03;20.20;1.00
11922;DHT22;6021;51.182;3.160;2023-08-12T14:14:32;20.20;1.00
11922;DHT22;6021;51.182;3.160;2023-08-12T14:17:00;20.10;1.00
11922;DHT22;6021;51.182;3.160;2023-08-12T14:19:28;20.10;1.00
11922;DHT22;6021;51.182;3.160;2023-08-12T14:21:57;20.10;1.00
11922;DHT22;6021;51.182;3.160;2023-08-12T14:24:25;20.30;1.00
11922;DHT22;6021;51.182;3.160;2023-08-12T14:26:54;20.30;1.00
11922;DHT22;6021;51.182;3.160;2023-08-12T14:29:23;20.40;1.00
11922;DHT22;6021;51.182;3.160;2023-08-12T14:31:52;20.30;1.00
11922;DHT22;6021;51.182;3.160;2023-08-12T14:34:20;20.50;1.00
11922;DHT22;6021;51.182;3.160;2023-08-12T14:36:48;20.60;1.00
11922;DHT22;6021;51.182;3.160;2023-08-12T14:39:17;20.50;1.00
11922;DHT22;6021;51.182;3.160;2023-08-12T14:41:45;20.50;1.00
11922;DHT22;6021;51.182;3.160;2023-08-12T14:44:14;20.50;1.00
11922;DHT22;6021;51.182;3.160;2023-08-12T14:46:43;20.50;1.00
11922;DHT22;6021;51.182;3.160;2023-08-12T14:49:11;20.50;1.00
11922;DHT22;6021;51.182;3.160;2023-08-12T14:51:39;20.60;1.00
11922;DHT22;6021;51.182;3.160;2023-08-12T14:54:08;20.50;1.00
11922;DHT22;6021;51.182;3.160;2023-08-12T14:56:36;20.40;1.00
11922;DHT22;6021;51.182;3.160;2023-08-12T14:59:04;20.30;1.00
11922;DHT22;6021;51.182;3.160;2023-08-12T15:01:33;20.40;1.00
11922;DHT22;6021;51.182;3.160;2023-08-12T15:04:03;20.50;1.00
11922;DHT22;6021;51.182;3.160;2023-08-12T15:06:32;20.70;1.00
11922;DHT22;6021;51.182;3.160;2023-08-12T15:09:00;20.60;1.00
11922;DHT22;6021;51.182;3.160;2023-08-12T15:11:29;20.70;1.00
11922;DHT22;6021;51.182;3.160;2023-08-12T15:13:57;20.60;1.00
11922;DHT22;6021;51.182;3.160;2023-08-12T15:16:26;20.70;1.00
11922;DHT22;6021;51.182;3.160;2023-08-12T15:18:54;20.70;1.00
11922;DHT22;6021;51.182;3.160;2023-08-12T15:21:22;20.70;1.00
11922;DHT22;6021;51.182;3.160;2023-08-12T15:23:51;20.60;1.00
11922;DHT22;6021;51.182;3.160;2023-08-12T15:26:21;20.60;1.00
11922;DHT22;6021;51.182;3.160;2023-08-12T15:28:52;20.70;1.00
11922;DHT22;6021;51.182;3.160;2023-08-12T15:31:21;20.60;1.00
11922;DHT22;6021;51.182;3.160;2023-08-12T15:33:49;20.50;1.00
11922;DHT22;6021;51.182;3.160;2023-08-12T15:36:17;20.40;1.00
11922;DHT22;6021;51.182;3.160;2023-08-12T15:38:46;20.40;1.00
11922;DHT22;6021;51.182;3.160;2023-08-12T15:41:16;20.40;1.00
11922;DHT22;6021;51.182;3.160;2023-08-12T15:43:44;20.40;1.00
11922;DHT22;6021;51.182;3.160;2023-08-12T15:46:13;20.40;1.00
11922;DHT22;6021;51.182;3.160;2023-08-12T15:48:41;20.40;1.00
11922;DHT22;6021;51.182;3.160;2023-08-12T15:51:10;20.50;1.00
11922;DHT22;6021;51.182;3.160;2023-08-12T15:53:38;20.50;1.00
11922;DHT22;6021;51.182;3.160;2023-08-12T15:56:07;20.60;1.00
11922;DHT22;6021;51.182;3.160;2023-08-12T15:58:36;20.50;1.00
11922;DHT22;6021;51.182;3.160;2023-08-12T16:01:04;20.50;1.00
11922;DHT22;6021;51.182;3.160;2023-08-12T16:03:33;20.50;1.00
11922;DHT22;6021;51.182;3.160;2023-08-12T16:06:02;20.50;1.00
11922;DHT22;6021;51.182;3.160;2023-08-12T16:08:31;20.50;1.00
11922;DHT22;6021;51.182;3.160;2023-08-12T16:10:59;20.50;1.00